sensor_id;sensor_type;location;lat;lon;timestamp;pressure;altitude;pressure_sealevel;temperature;humidity
49915;BME280;35806;47.958;13.158;2022-12-07T00:01:05;94525.55;;;-0.06;68.48
49915;BME280;35806;47.958;13.158;2022-12-07T00:03:38;94522.56;;;0.16;69.35
49915;BME280;35806;47.958;13.158;2022-12-07T00:06:07;94518.02;;;0.96;66.33
49915;BME280;35806;47.958;13.158;2022-12-07T00:08:36;94517.16;;;-0.32;69.24
49915;BME280;35806;47.958;13.158;2022-12-07T00:11:04;94518.66;;;0.33;67.97
49915;BME280;35806;47.958;13.158;2022-12-07T00:13:33;94517.63;;;1.51;65.24
49915;BME280;35806;47.958;13.158;2022-12-07T00:16:02;94520.13;;;0.12;67.72
49915;BME280;35806;47.958;13.158;2022-12-07T00:18:30;94517.78;;;-0.19;68.96
49915;BME280;35806;47.958;13.158;2022-12-07T00:21:00;94513.77;;;1.08;65.62
49915;BME280;35806;47.958;13.158;2022-12-07T00:23:27;94512.07;;;0.21;68.14
49915;BME280;35806;47.958;13.158;2022-12-07T00:25:55;94506.14;;;-0.44;70.87
49915;BME280;35806;47.958;13.158;2022-12-07T00:28:22;94502.34;;;0.63;66.94
49915;BME280;35806;47.958;13.158;2022-12-07T00:30:49;94503.40;;;0.32;68.79
49915;BME280;35806;47.958;13.158;2022-12-07T00:33:16;94500.04;;;0.10;69.77
49915;BME280;35806;47.958;13.158;2022-12-07T00:35:44;94497.44;;;0.01;69.95
49915;BME280;35806;47.958;13.158;2022-12-07T00:38:10;94498.13;;;-0.03;69.78
49915;BME280;35806;47.958;13.158;2022-12-07T00:40:38;94495.54;;;-0.23;70.26
49915;BME280;35806;47.958;13.158;2022-12-07T00:43:05;94497.70;;;-0.18;69.87
49915;BME280;35806;47.958;13.158;2022-12-07T00:45:37;94498.55;;;-0.44;70.99
49915;BME280;35806;47.958;13.158;2022-12-07T00:48:05;94497.48;;;-0.06;69.24
49915;BME280;35806;47.958;13.158;2022-12-07T00:50:37;94492.95;;;-0.48;71.67
49915;BME280;35806;47.958;13.158;2022-12-07T00:53:04;94492.04;;;-1.29;73.59
49915;BME280;35806;47.958;13.158;2022-12-07T00:55:32;94491.70;;;-0.46;71.55
49915;BME280;35806;47.958;13.158;2022-12-07T00:57:59;94489.20;;;0.34;68.76
49915;BME280;35806;47.958;13.158;2022-12-07T01:00:27;94494.01;;;-0.43;70.81
49915;BME280;35806;47.958;13.158;2022-12-07T01:02:54;94496.59;;;-0.41;70.33
49915;BME280;35806;47.958;13.158;2022-12-07T01:05:20;94492.49;;;-0.25;71.59
49915;BME280;35806;47.958;13.158;2022-12-07T01:07:47;94494.59;;;-1.08;73.79
49915;BME280;35806;47.958;13.158;2022-12-07T01:10:15;94491.59;;;-0.61;72.60
49915;BME280;35806;47.958;13.158;2022-12-07T01:12:42;94491.38;;;0.14;70.84
49915;BME280;35806;47.958;13.158;2022-12-07T01:15:10;94492.17;;;-0.28;71.84
49915;BME280;35806;47.958;13.158;2022-12-07T01:17:37;94497.19;;;-0.45;71.77
49915;BME280;35806;47.958;13.158;2022-12-07T01:20:06;94496.17;;;-1.06;74.04
49915;BME280;35806;47.958;13.158;2022-12-07T01:22:36;94501.11;;;-0.54;73.08
49915;BME280;35806;47.958;13.158;2022-12-07T01:25:04;94498.99;;;-0.19;72.90
49915;BME280;35806;47.958;13.158;2022-12-07T01:27:32;94501.30;;;-0.43;72.31
49915;BME280;35806;47.958;13.158;2022-12-07T01:30:00;94498.81;;;-0.96;75.42
49915;BME280;35806;47.958;13.158;2022-12-07T01:32:27;94499.69;;;-0.21;72.61
49915;BME280;35806;47.958;13.158;2022-12-07T01:34:55;94499.60;;;-0.06;71.14
49915;BME280;35806;47.958;13.158;2022-12-07T01:37:23;94497.49;;;0.86;69.45
49915;BME280;35806;47.958;13.158;2022-12-07T01:39:50;94494.87;;;-0.40;72.00
49915;BME280;35806;47.958;13.158;2022-12-07T01:42:18;94493.14;;;-0.14;72.16
49915;BME280;35806;47.958;13.158;2022-12-07T01:45:39;94498.01;;;-1.30;76.37
49915;BME280;35806;47.958;13.158;2022-12-07T01:48:08;94492.67;;;-1.60;78.14
49915;BME280;35806;47.958;13.158;2022-12-07T01:50:38;94489.05;;;-1.34;77.77
49915;BME280;35806;47.958;13.158;2022-12-07T01:53:09;94486.82;;;-0.95;75.36
49915;BME280;35806;47.958;13.158;2022-12-07T01:55:40;94486.63;;;-2.02;79.18
49915;BME280;35806;47.958;13.158;2022-12-07T01:58:09;94486.77;;;-1.13;77.47
49915;BME280;35806;47.958;13.158;2022-12-07T02:15:38;94493.68;;;-1.86;81.31
49915;BME280;35806;47.958;13.158;2022-12-07T02:18:12;94491.12;;;-1.91;81.86
49915;BME280;35806;47.958;13.158;2022-12-07T02:20:52;94488.34;;;-1.83;80.50
49915;BME280;35806;47.958;13.158;2022-12-07T02:23:39;94486.54;;;-1.34;79.02
49915;BME280;35806;47.958;13.158;2022-12-07T02:26:56;94483.38;;;-0.51;76.73
49915;BME280;35806;47.958;13.158;2022-12-07T02:29:28;94484.75;;;-1.16;78.00
49915;BME280;35806;47.958;13.158;2022-12-07T02:32:02;94483.71;;;-1.00;77.36
49915;BME280;35806;47.958;13.158;2022-12-07T02:34:38;94486.08;;;-1.86;79.70
49915;BME280;35806;47.958;13.158;2022-12-07T02:37:12;94492.70;;;-1.65;79.93
49915;BME280;35806;47.958;13.158;2022-12-07T02:39:46;94491.96;;;-1.90;80.66
49915;BME280;35806;47.958;13.158;2022-12-07T02:42:23;94484.92;;;-1.58;80.04
49915;BME280;35806;47.958;13.158;2022-12-07T02:44:52;94489.75;;;-1.95;80.10
49915;BME280;35806;47.958;13.158;2022-12-07T02:47:20;94488.77;;;-2.16;81.97
49915;BME280;35806;47.958;13.158;2022-12-07T02:49:49;94483.21;;;-1.26;78.59
49915;BME280;35806;47.958;13.158;2022-12-07T02:52:18;94484.70;;;-1.37;78.28
49915;BME280;35806;47.958;13.158;2022-12-07T02:54:46;94487.18;;;-2.11;80.04
49915;BME280;35806;47.958;13.158;2022-12-07T02:57:25;94490.50;;;-1.70;79.94
49915;BME280;35806;47.958;13.158;2022-12-07T03:00:03;94490.00;;;-1.85;79.84
49915;BME280;35806;47.958;13.158;2022-12-07T03:02:38;94489.10;;;-1.89;80.04
49915;BME280;35806;47.958;13.158;2022-12-07T03:05:19;94485.66;;;-1.51;79.37
49915;BME280;35806;47.958;13.158;2022-12-07T03:07:55;94482.62;;;-1.63;77.81
49915;BME280;35806;47.958;13.158;2022-12-07T03:10:34;94482.63;;;-1.81;77.68
49915;BME280;35806;47.958;13.158;2022-12-07T03:13:06;94487.61;;;-1.90;78.56
49915;BME280;35806;47.958;13.158;2022-12-07T03:15:40;94482.33;;;-2.11;78.88
49915;BME280;35806;47.958;13.158;2022-12-07T03:18:10;94482.84;;;-1.83;78.84
49915;BME280;35806;47.958;13.158;2022-12-07T03:20:42;94482.43;;;-1.97;78.33
49915;BME280;35806;47.958;13.158;2022-12-07T03:23:12;94480.78;;;-2.09;78.69
49915;BME280;35806;47.958;13.158;2022-12-07T03:25:46;94478.34;;;-2.09;78.83
49915;BME280;35806;47.958;13.158;2022-12-07T03:28:22;94472.21;;;-1.66;77.79
49915;BME280;35806;47.958;13.158;2022-12-07T03:30:54;94476.40;;;-2.02;78.45
49915;BME280;35806;47.958;13.158;2022-12-07T03:33:25;94478.71;;;-1.84;78.10
49915;BME280;35806;47.958;13.158;2022-12-07T03:35:58;94477.74;;;-2.40;77.74
49915;BME280;35806;47.958;13.158;2022-12-07T03:38:32;94471.36;;;-1.63;77.48
49915;BME280;35806;47.958;13.158;2022-12-07T03:41:06;94473.52;;;-2.02;77.11
49915;BME280;35806;47.958;13.158;2022-12-07T03:43:37;94472.96;;;-2.22;77.28
49915;BME280;35806;47.958;13.158;2022-12-07T03:46:12;94478.33;;;-1.88;77.67
49915;BME280;35806;47.958;13.158;2022-12-07T03:48:53;94481.75;;;-1.89;78.08
49915;BME280;35806;47.958;13.158;2022-12-07T03:51:26;94479.77;;;-2.01;78.20
49915;BME280;35806;47.958;13.158;2022-12-07T03:54:00;94476.84;;;-1.77;77.63
49915;BME280;35806;47.958;13.158;2022-12-07T03:56:30;94478.99;;;-1.91;77.04
49915;BME280;35806;47.958;13.158;2022-12-07T03:58:58;94478.23;;;-1.85;77.29
49915;BME280;35806;47.958;13.158;2022-12-07T04:01:25;94477.24;;;-1.92;77.77
49915;BME280;35806;47.958;13.158;2022-12-07T04:03:54;94474.21;;;-2.31;78.47
49915;BME280;35806;47.958;13.158;2022-12-07T04:06:21;94474.16;;;-1.88;77.24
49915;BME280;35806;47.958;13.158;2022-12-07T04:08:48;94473.25;;;-2.05;77.65
49915;BME280;35806;47.958;13.158;2022-12-07T04:11:15;94470.13;;;-1.96;76.86
49915;BME280;35806;47.958;13.158;2022-12-07T04:13:42;94471.26;;;-2.42;77.61
49915;BME280;35806;47.958;13.158;2022-12-07T04:16:10;94473.70;;;-2.04;77.21
49915;BME280;35806;47.958;13.158;2022-12-07T04:18:37;94471.90;;;-1.90;77.15
49915;BME280;35806;47.958;13.158;2022-12-07T04:21:05;94468.73;;;-1.67;75.78
49915;BME280;35806;47.958;13.158;2022-12-07T04:23:32;94467.16;;;-1.90;75.82
49915;BME280;35806;47.958;13.158;2022-12-07T04:26:00;94472.21;;;-2.27;76.78
49915;BME280;35806;47.958;13.158;2022-12-07T04:28:27;94468.23;;;-2.04;75.64
49915;BME280;35806;47.958;13.158;2022-12-07T04:30:55;94467.54;;;-1.52;75.06
49915;BME280;35806;47.958;13.158;2022-12-07T04:33:22;94466.42;;;-1.38;74.02
49915;BME280;35806;47.958;13.158;2022-12-07T04:35:59;94473.75;;;-2.08;75.89
49915;BME280;35806;47.958;13.158;2022-12-07T04:38:26;94472.95;;;-2.10;76.77
49915;BME280;35806;47.958;13.158;2022-12-07T04:40:54;94467.93;;;-1.88;74.92
49915;BME280;35806;47.958;13.158;2022-12-07T04:43:21;94475.64;;;-1.64;75.28
49915;BME280;35806;47.958;13.158;2022-12-07T04:45:48;94478.92;;;-1.71;74.54
49915;BME280;35806;47.958;13.158;2022-12-07T04:48:15;94484.14;;;-1.24;73.74
49915;BME280;35806;47.958;13.158;2022-12-07T04:50:42;94484.32;;;-1.86;74.66
49915;BME280;35806;47.958;13.158;2022-12-07T04:53:19;94484.59;;;-1.98;74.94
49915;BME280;35806;47.958;13.158;2022-12-07T04:55:46;94483.52;;;-1.97;74.88
49915;BME280;35806;47.958;13.158;2022-12-07T04:58:14;94486.77;;;-2.43;76.21
49915;BME280;35806;47.958;13.158;2022-12-07T05:00:41;94484.05;;;-1.84;74.61
49915;BME280;35806;47.958;13.158;2022-12-07T05:03:09;94482.35;;;-1.18;72.92
49915;BME280;35806;47.958;13.158;2022-12-07T05:05:39;94477.84;;;-1.94;73.86
49915;BME280;35806;47.958;13.158;2022-12-07T05:08:06;94471.17;;;-1.87;74.23
49915;BME280;35806;47.958;13.158;2022-12-07T05:10:33;94473.11;;;-1.45;73.76
49915;BME280;35806;47.958;13.158;2022-12-07T05:13:00;94467.57;;;-1.81;74.51
49915;BME280;35806;47.958;13.158;2022-12-07T05:15:27;94468.21;;;-1.22;73.02
49915;BME280;35806;47.958;13.158;2022-12-07T05:17:54;94468.02;;;-1.40;71.93
49915;BME280;35806;47.958;13.158;2022-12-07T05:20:21;94467.30;;;-1.90;73.99
49915;BME280;35806;47.958;13.158;2022-12-07T05:22:49;94464.99;;;-1.43;73.17
49915;BME280;35806;47.958;13.158;2022-12-07T05:25:16;94465.87;;;-2.13;74.40
49915;BME280;35806;47.958;13.158;2022-12-07T05:27:43;94472.58;;;-2.32;75.61
49915;BME280;35806;47.958;13.158;2022-12-07T05:30:12;94467.58;;;-1.73;74.72
49915;BME280;35806;47.958;13.158;2022-12-07T05:32:39;94466.04;;;-1.66;73.60
49915;BME280;35806;47.958;13.158;2022-12-07T05:35:07;94466.50;;;-1.68;73.04
49915;BME280;35806;47.958;13.158;2022-12-07T05:37:34;94467.48;;;-1.36;71.75
49915;BME280;35806;47.958;13.158;2022-12-07T05:40:01;94472.78;;;-2.09;73.73
49915;BME280;35806;47.958;13.158;2022-12-07T05:42:28;94474.01;;;-2.10;74.51
49915;BME280;35806;47.958;13.158;2022-12-07T05:44:55;94474.43;;;-1.67;74.15
49915;BME280;35806;47.958;13.158;2022-12-07T05:47:22;94476.70;;;-1.51;71.80
49915;BME280;35806;47.958;13.158;2022-12-07T05:49:50;94474.07;;;-1.47;71.89
49915;BME280;35806;47.958;13.158;2022-12-07T05:52:17;94474.40;;;-1.35;71.26
49915;BME280;35806;47.958;13.158;2022-12-07T05:54:44;94473.98;;;-1.29;71.31
49915;BME280;35806;47.958;13.158;2022-12-07T05:57:12;94474.94;;;-1.47;71.25
49915;BME280;35806;47.958;13.158;2022-12-07T05:59:39;94475.08;;;-1.63;72.64
49915;BME280;35806;47.958;13.158;2022-12-07T06:02:08;94471.55;;;-1.93;72.97
49915;BME280;35806;47.958;13.158;2022-12-07T06:04:38;94473.10;;;-1.61;72.74
49915;BME280;35806;47.958;13.158;2022-12-07T06:07:05;94474.29;;;-1.34;71.60
49915;BME280;35806;47.958;13.158;2022-12-07T06:09:38;94474.14;;;-1.33;70.74
49915;BME280;35806;47.958;13.158;2022-12-07T06:12:06;94473.39;;;-1.03;70.80
49915;BME280;35806;47.958;13.158;2022-12-07T06:14:34;94475.61;;;-0.91;70.57
49915;BME280;35806;47.958;13.158;2022-12-07T06:17:01;94474.19;;;-1.01;69.71
49915;BME280;35806;47.958;13.158;2022-12-07T06:19:29;94479.33;;;-1.02;69.53
49915;BME280;35806;47.958;13.158;2022-12-07T06:21:57;94477.82;;;-0.25;68.00
49915;BME280;35806;47.958;13.158;2022-12-07T06:24:25;94486.27;;;-0.94;68.91
49915;BME280;35806;47.958;13.158;2022-12-07T06:26:52;94487.45;;;-0.73;68.72
49915;BME280;35806;47.958;13.158;2022-12-07T06:29:19;94488.06;;;-1.05;69.08
49915;BME280;35806;47.958;13.158;2022-12-07T06:31:46;94487.74;;;-1.04;69.34
49915;BME280;35806;47.958;13.158;2022-12-07T06:34:16;94487.16;;;-0.75;68.23
49915;BME280;35806;47.958;13.158;2022-12-07T06:36:44;94487.69;;;-1.12;68.74
49915;BME280;35806;47.958;13.158;2022-12-07T06:39:12;94490.02;;;-0.68;67.88
49915;BME280;35806;47.958;13.158;2022-12-07T06:41:39;94489.79;;;-0.90;68.20
49915;BME280;35806;47.958;13.158;2022-12-07T06:44:06;94490.53;;;-0.71;68.01
49915;BME280;35806;47.958;13.158;2022-12-07T06:46:33;94498.04;;;-1.29;68.65
49915;BME280;35806;47.958;13.158;2022-12-07T06:49:01;94498.47;;;-0.97;68.76
49915;BME280;35806;47.958;13.158;2022-12-07T06:51:28;94499.40;;;-0.53;67.23
49915;BME280;35806;47.958;13.158;2022-12-07T06:53:56;94502.44;;;-1.08;68.92
49915;BME280;35806;47.958;13.158;2022-12-07T06:56:24;94499.19;;;-0.89;69.11
49915;BME280;35806;47.958;13.158;2022-12-07T06:58:51;94499.79;;;-0.18;66.95
49915;BME280;35806;47.958;13.158;2022-12-07T07:01:19;94500.18;;;-0.80;68.17
49915;BME280;35806;47.958;13.158;2022-12-07T07:03:46;94497.84;;;-0.45;67.55
49915;BME280;35806;47.958;13.158;2022-12-07T07:06:14;94503.41;;;-0.61;67.77
49915;BME280;35806;47.958;13.158;2022-12-07T07:08:42;94503.86;;;-0.91;68.67
49915;BME280;35806;47.958;13.158;2022-12-07T07:11:09;94508.43;;;-0.45;68.52
49915;BME280;35806;47.958;13.158;2022-12-07T07:13:37;94512.84;;;-1.04;69.13
49915;BME280;35806;47.958;13.158;2022-12-07T07:16:05;94511.11;;;-1.20;69.94
49915;BME280;35806;47.958;13.158;2022-12-07T07:18:33;94515.23;;;-0.84;68.97
49915;BME280;35806;47.958;13.158;2022-12-07T07:21:05;94521.57;;;-0.41;68.38
49915;BME280;35806;47.958;13.158;2022-12-07T07:23:33;94521.00;;;-1.22;68.98
49915;BME280;35806;47.958;13.158;2022-12-07T07:26:01;94523.73;;;-0.67;68.13
49915;BME280;35806;47.958;13.158;2022-12-07T07:28:28;94524.94;;;-0.89;68.83
49915;BME280;35806;47.958;13.158;2022-12-07T07:30:56;94522.07;;;-0.16;67.14
49915;BME280;35806;47.958;13.158;2022-12-07T07:33:23;94524.94;;;-0.92;67.89
49915;BME280;35806;47.958;13.158;2022-12-07T07:35:51;94529.81;;;0.41;66.00
49915;BME280;35806;47.958;13.158;2022-12-07T07:38:18;94526.25;;;-0.11;66.43
49915;BME280;35806;47.958;13.158;2022-12-07T07:40:45;94527.48;;;-0.54;66.78
49915;BME280;35806;47.958;13.158;2022-12-07T07:43:13;94526.99;;;-0.58;67.33
49915;BME280;35806;47.958;13.158;2022-12-07T07:45:40;94524.30;;;-0.55;66.51
49915;BME280;35806;47.958;13.158;2022-12-07T07:48:07;94525.57;;;-0.24;66.03
49915;BME280;35806;47.958;13.158;2022-12-07T07:50:34;94531.73;;;-0.80;66.73
49915;BME280;35806;47.958;13.158;2022-12-07T07:53:02;94530.77;;;-0.92;66.99
49915;BME280;35806;47.958;13.158;2022-12-07T07:55:29;94529.73;;;0.07;65.32
49915;BME280;35806;47.958;13.158;2022-12-07T07:57:57;94532.07;;;-0.09;64.29
49915;BME280;35806;47.958;13.158;2022-12-07T08:00:24;94533.14;;;-0.05;63.42
49915;BME280;35806;47.958;13.158;2022-12-07T08:02:51;94534.86;;;0.72;61.46
49915;BME280;35806;47.958;13.158;2022-12-07T08:05:19;94540.32;;;0.16;61.84
49915;BME280;35806;47.958;13.158;2022-12-07T08:07:46;94539.56;;;-0.62;63.18
49915;BME280;35806;47.958;13.158;2022-12-07T08:10:13;94547.77;;;-0.84;63.27
49915;BME280;35806;47.958;13.158;2022-12-07T08:12:42;94549.12;;;-1.65;66.24
49915;BME280;35806;47.958;13.158;2022-12-07T08:15:10;94544.82;;;-1.30;66.71
49915;BME280;35806;47.958;13.158;2022-12-07T08:17:37;94547.33;;;-0.59;65.09
49915;BME280;35806;47.958;13.158;2022-12-07T08:20:06;94551.31;;;-1.25;66.04
49915;BME280;35806;47.958;13.158;2022-12-07T08:22:34;94545.38;;;-0.66;65.35
49915;BME280;35806;47.958;13.158;2022-12-07T08:25:01;94551.81;;;-0.91;64.64
49915;BME280;35806;47.958;13.158;2022-12-07T08:27:28;94552.05;;;-1.08;64.02
49915;BME280;35806;47.958;13.158;2022-12-07T08:29:55;94547.33;;;-1.10;64.39
49915;BME280;35806;47.958;13.158;2022-12-07T08:32:23;94547.69;;;-0.86;64.25
49915;BME280;35806;47.958;13.158;2022-12-07T08:34:52;94554.73;;;-0.96;64.79
49915;BME280;35806;47.958;13.158;2022-12-07T08:37:19;94556.54;;;-0.47;64.26
49915;BME280;35806;47.958;13.158;2022-12-07T08:39:46;94558.14;;;-0.27;62.84
49915;BME280;35806;47.958;13.158;2022-12-07T08:42:14;94555.82;;;0.72;61.02
49915;BME280;35806;47.958;13.158;2022-12-07T08:44:40;94554.08;;;0.92;60.14
49915;BME280;35806;47.958;13.158;2022-12-07T08:47:08;94558.71;;;0.33;60.96
49915;BME280;35806;47.958;13.158;2022-12-07T08:49:40;94562.92;;;0.54;61.10
49915;BME280;35806;47.958;13.158;2022-12-07T08:52:08;94558.73;;;1.03;59.55
49915;BME280;35806;47.958;13.158;2022-12-07T08:54:38;94552.03;;;2.28;57.66
49915;BME280;35806;47.958;13.158;2022-12-07T08:57:07;94553.79;;;2.07;57.69
49915;BME280;35806;47.958;13.158;2022-12-07T08:59:36;94554.43;;;2.10;57.96
49915;BME280;35806;47.958;13.158;2022-12-07T09:02:04;94557.79;;;2.03;57.35
49915;BME280;35806;47.958;13.158;2022-12-07T09:04:32;94560.19;;;1.72;58.04
49915;BME280;35806;47.958;13.158;2022-12-07T09:06:59;94556.24;;;2.61;55.32
49915;BME280;35806;47.958;13.158;2022-12-07T09:09:26;94555.43;;;2.81;56.21
49915;BME280;35806;47.958;13.158;2022-12-07T09:11:53;94553.16;;;2.73;55.89
49915;BME280;35806;47.958;13.158;2022-12-07T09:14:20;94556.41;;;2.57;56.80
49915;BME280;35806;47.958;13.158;2022-12-07T09:16:47;94560.66;;;3.12;55.39
49915;BME280;35806;47.958;13.158;2022-12-07T09:19:14;94564.42;;;2.86;56.17
49915;BME280;35806;47.958;13.158;2022-12-07T09:21:41;94564.55;;;1.99;56.76
49915;BME280;35806;47.958;13.158;2022-12-07T09:24:09;94560.42;;;1.72;56.94
49915;BME280;35806;47.958;13.158;2022-12-07T09:26:36;94559.30;;;2.50;57.16
49915;BME280;35806;47.958;13.158;2022-12-07T09:29:03;94563.10;;;2.36;56.57
49915;BME280;35806;47.958;13.158;2022-12-07T09:31:31;94558.53;;;2.36;57.03
49915;BME280;35806;47.958;13.158;2022-12-07T09:34:00;94554.02;;;2.89;56.39
49915;BME280;35806;47.958;13.158;2022-12-07T09:36:28;94554.53;;;3.16;55.85
49915;BME280;35806;47.958;13.158;2022-12-07T09:38:55;94554.96;;;2.83;56.17
49915;BME280;35806;47.958;13.158;2022-12-07T09:41:24;94553.37;;;2.11;58.09
49915;BME280;35806;47.958;13.158;2022-12-07T09:43:53;94550.88;;;2.99;56.81
49915;BME280;35806;47.958;13.158;2022-12-07T09:46:32;94552.81;;;2.22;57.13
49915;BME280;35806;47.958;13.158;2022-12-07T09:49:11;94553.21;;;1.83;58.36
49915;BME280;35806;47.958;13.158;2022-12-07T09:51:39;94549.56;;;2.18;57.69
49915;BME280;35806;47.958;13.158;2022-12-07T09:54:08;94550.19;;;2.58;57.80
49915;BME280;35806;47.958;13.158;2022-12-07T09:56:38;94549.09;;;2.84;58.36
49915;BME280;35806;47.958;13.158;2022-12-07T09:59:06;94545.76;;;2.65;57.55
49915;BME280;35806;47.958;13.158;2022-12-07T10:01:38;94545.12;;;2.06;59.07
49915;BME280;35806;47.958;13.158;2022-12-07T10:04:12;94542.09;;;2.57;58.34
49915;BME280;35806;47.958;13.158;2022-12-07T10:06:46;94542.12;;;2.09;58.78
49915;BME280;35806;47.958;13.158;2022-12-07T10:09:16;94540.30;;;2.89;57.95
49915;BME280;35806;47.958;13.158;2022-12-07T10:12:01;94536.56;;;2.84;57.21
49915;BME280;35806;47.958;13.158;2022-12-07T10:14:31;94528.85;;;3.22;57.14
49915;BME280;35806;47.958;13.158;2022-12-07T10:16:59;94533.54;;;2.34;58.41
49915;BME280;35806;47.958;13.158;2022-12-07T10:19:33;94531.83;;;2.84;57.34
49915;BME280;35806;47.958;13.158;2022-12-07T10:22:04;94532.87;;;3.23;57.45
49915;BME280;35806;47.958;13.158;2022-12-07T10:24:32;94533.16;;;3.21;56.38
49915;BME280;35806;47.958;13.158;2022-12-07T10:26:59;94530.09;;;2.91;57.25
49915;BME280;35806;47.958;13.158;2022-12-07T10:29:30;94528.57;;;2.64;57.82
49915;BME280;35806;47.958;13.158;2022-12-07T10:31:59;94523.67;;;3.78;56.32
49915;BME280;35806;47.958;13.158;2022-12-07T10:34:29;94524.47;;;2.99;57.32
49915;BME280;35806;47.958;13.158;2022-12-07T10:37:14;94524.37;;;2.18;57.41
49915;BME280;35806;47.958;13.158;2022-12-07T10:39:44;94520.20;;;2.77;56.59
49915;BME280;35806;47.958;13.158;2022-12-07T10:42:17;94518.10;;;3.04;56.32
49915;BME280;35806;47.958;13.158;2022-12-07T10:44:46;94519.55;;;2.79;56.76
49915;BME280;35806;47.958;13.158;2022-12-07T10:47:34;94515.31;;;2.26;57.16
49915;BME280;35806;47.958;13.158;2022-12-07T10:50:17;94513.79;;;3.13;56.03
49915;BME280;35806;47.958;13.158;2022-12-07T10:53:14;94517.12;;;3.29;55.46
49915;BME280;35806;47.958;13.158;2022-12-07T10:55:58;94513.13;;;3.24;55.64
49915;BME280;35806;47.958;13.158;2022-12-07T10:58:42;94513.26;;;3.69;54.62
49915;BME280;35806;47.958;13.158;2022-12-07T11:01:22;94516.24;;;3.67;54.28
49915;BME280;35806;47.958;13.158;2022-12-07T11:04:03;94514.18;;;3.85;54.26
49915;BME280;35806;47.958;13.158;2022-12-07T11:06:39;94509.13;;;3.87;52.98
49915;BME280;35806;47.958;13.158;2022-12-07T11:10:11;94500.60;;;3.97;53.39
49915;BME280;35806;47.958;13.158;2022-12-07T11:12:52;94494.99;;;3.42;54.01
49915;BME280;35806;47.958;13.158;2022-12-07T11:15:26;94490.00;;;3.51;53.45
49915;BME280;35806;47.958;13.158;2022-12-07T11:18:01;94489.17;;;3.19;54.52
49915;BME280;35806;47.958;13.158;2022-12-07T11:20:41;94489.50;;;2.71;54.42
49915;BME280;35806;47.958;13.158;2022-12-07T11:23:25;94483.68;;;3.16;54.72
49915;BME280;35806;47.958;13.158;2022-12-07T11:26:01;94483.99;;;2.72;55.46
49915;BME280;35806;47.958;13.158;2022-12-07T11:28:53;94479.63;;;3.27;54.22
49915;BME280;35806;47.958;13.158;2022-12-07T11:31:31;94475.77;;;3.54;53.94
49915;BME280;35806;47.958;13.158;2022-12-07T11:34:07;94471.66;;;3.88;53.76
49915;BME280;35806;47.958;13.158;2022-12-07T11:36:40;94466.71;;;3.28;53.90
49915;BME280;35806;47.958;13.158;2022-12-07T11:39:25;94464.11;;;3.17;53.59
49915;BME280;35806;47.958;13.158;2022-12-07T11:42:00;94462.52;;;2.56;55.21
49915;BME280;35806;47.958;13.158;2022-12-07T11:44:32;94461.48;;;3.41;54.27
49915;BME280;35806;47.958;13.158;2022-12-07T11:47:04;94459.56;;;3.00;53.64
49915;BME280;35806;47.958;13.158;2022-12-07T11:49:43;94461.32;;;3.12;54.45
49915;BME280;35806;47.958;13.158;2022-12-07T11:52:20;94463.61;;;3.34;52.63
49915;BME280;35806;47.958;13.158;2022-12-07T11:54:51;94461.28;;;3.32;53.00
49915;BME280;35806;47.958;13.158;2022-12-07T11:57:26;94461.07;;;3.82;53.20
49915;BME280;35806;47.958;13.158;2022-12-07T12:00:00;94461.51;;;3.40;52.30
49915;BME280;35806;47.958;13.158;2022-12-07T12:02:33;94460.54;;;3.55;52.74
49915;BME280;35806;47.958;13.158;2022-12-07T12:05:13;94457.30;;;3.29;52.74
49915;BME280;35806;47.958;13.158;2022-12-07T12:07:41;94454.04;;;3.48;52.98
49915;BME280;35806;47.958;13.158;2022-12-07T12:10:20;94452.54;;;3.24;52.77
49915;BME280;35806;47.958;13.158;2022-12-07T12:13:03;94448.06;;;3.70;52.59
49915;BME280;35806;47.958;13.158;2022-12-07T12:15:47;94444.89;;;3.01;52.64
49915;BME280;35806;47.958;13.158;2022-12-07T12:18:31;94442.63;;;3.25;52.29
49915;BME280;35806;47.958;13.158;2022-12-07T12:21:07;94434.66;;;3.29;52.00
49915;BME280;35806;47.958;13.158;2022-12-07T12:23:40;94429.64;;;3.62;51.96
49915;BME280;35806;47.958;13.158;2022-12-07T12:26:16;94429.44;;;3.98;51.68
49915;BME280;35806;47.958;13.158;2022-12-07T12:28:53;94427.49;;;3.15;50.82
49915;BME280;35806;47.958;13.158;2022-12-07T12:31:38;94427.07;;;3.20;51.12
49915;BME280;35806;47.958;13.158;2022-12-07T12:34:31;94428.64;;;3.74;50.60
49915;BME280;35806;47.958;13.158;2022-12-07T12:36:59;94426.53;;;3.09;49.76
49915;BME280;35806;47.958;13.158;2022-12-07T12:40:48;94421.81;;;3.39;51.07
49915;BME280;35806;47.958;13.158;2022-12-07T12:43:49;94420.45;;;3.11;51.01
49915;BME280;35806;47.958;13.158;2022-12-07T12:46:52;94418.16;;;2.60;50.02
49915;BME280;35806;47.958;13.158;2022-12-07T12:49:38;94420.41;;;3.69;49.24
49915;BME280;35806;47.958;13.158;2022-12-07T12:54:20;94417.53;;;4.07;51.17
49915;BME280;35806;47.958;13.158;2022-12-07T12:57:01;94415.12;;;3.90;51.21
49915;BME280;35806;47.958;13.158;2022-12-07T12:59:39;94414.97;;;3.75;50.31
49915;BME280;35806;47.958;13.158;2022-12-07T13:02:19;94408.80;;;3.71;50.51
49915;BME280;35806;47.958;13.158;2022-12-07T13:04:52;94408.08;;;3.73;50.72
49915;BME280;35806;47.958;13.158;2022-12-07T13:08:25;94408.44;;;4.03;50.05
49915;BME280;35806;47.958;13.158;2022-12-07T13:10:52;94404.88;;;3.09;50.00
49915;BME280;35806;47.958;13.158;2022-12-07T13:13:37;94405.27;;;4.07;50.02
49915;BME280;35806;47.958;13.158;2022-12-07T13:16:41;94406.84;;;3.87;49.25
49915;BME280;35806;47.958;13.158;2022-12-07T13:20:42;94408.15;;;3.99;49.23
49915;BME280;35806;47.958;13.158;2022-12-07T13:23:10;94408.18;;;3.71;49.31
49915;BME280;35806;47.958;13.158;2022-12-07T13:25:48;94406.58;;;3.56;49.63
49915;BME280;35806;47.958;13.158;2022-12-07T13:28:17;94405.77;;;3.79;49.84
49915;BME280;35806;47.958;13.158;2022-12-07T13:30:58;94409.14;;;3.13;48.90
49915;BME280;35806;47.958;13.158;2022-12-07T13:33:28;94412.11;;;3.31;47.48
49915;BME280;35806;47.958;13.158;2022-12-07T13:35:57;94411.86;;;3.16;48.74
49915;BME280;35806;47.958;13.158;2022-12-07T13:38:51;94408.79;;;3.51;48.27